Time;durP1;ratioP1;P1;durP2;ratioP2;P2;SDS_P1;SDS_P2;PMS_P1;PMS_P2;Temp;Humidity;BMP_temperature;BMP_pressure;BME280_temperature;BME280_humidity;BME280_pressure;Samples;Min_cycle;Max_cycle;Signal;HPM_P1;HPM_P2
2023/02/15 00:02:11;;;;;;;28.23;20.10;;;2.50;99.90;;;;;;5028198;28;20313;-73
2023/02/15 00:04:57;;;;;;;56.78;20.75;;;2.60;99.90;;;;;;5029199;28;20686;-74
2023/02/15 00:07:44;;;;;;;84.68;20.55;;;2.60;99.90;;;;;;5026082;28;20209;-74
2023/02/15 00:10:29;;;;;;;65.78;19.50;;;2.60;99.90;;;;;;5033043;28;20230;-71
2023/02/15 00:13:15;;;;;;;35.17;19.08;;;2.50;99.90;;;;;;5036787;28;20216;-71
2023/02/15 00:16:05;;;;;;;181.77;20.92;;;2.40;99.90;;;;;;5031957;28;20209;-72
2023/02/15 00:18:53;;;;;;;124.00;21.65;;;2.30;99.90;;;;;;5026019;28;20405;-71
2023/02/15 00:21:40;;;;;;;37.25;20.98;;;2.00;99.90;;;;;;5030171;28;20313;-72
2023/02/15 00:24:27;;;;;;;145.40;23.05;;;2.00;99.90;;;;;;5026302;28;20206;-71
2023/02/15 00:27:12;;;;;;;85.35;22.10;;;1.90;99.90;;;;;;5022511;28;20213;-71
2023/02/15 00:29:58;;;;;;;134.75;22.85;;;1.70;99.90;;;;;;5022144;28;20237;-72
2023/02/15 00:32:43;;;;;;;79.07;21.20;;;1.70;99.90;;;;;;5030080;28;20241;-72
2023/02/15 00:35:29;;;;;;;70.25;19.83;;;1.80;99.90;;;;;;5031006;28;20589;-71
2023/02/15 00:38:14;;;;;;;34.15;19.63;;;1.90;99.90;;;;;;5020051;28;20325;-71
2023/02/15 00:41:04;;;;;;;28.23;19.60;;;1.90;99.90;;;;;;5031154;28;20213;-71
2023/02/15 00:43:49;;;;;;;36.83;19.67;;;1.90;99.90;;;;;;5030469;28;20233;-72
2023/02/15 00:46:35;;;;;;;49.88;20.15;;;1.90;99.90;;;;;;5018065;28;20202;-71
2023/02/15 00:49:21;;;;;;;41.92;19.55;;;2.00;99.90;;;;;;5027285;28;20746;-71
2023/02/15 00:52:06;;;;;;;55.88;19.80;;;1.90;99.90;;;;;;5031351;28;20206;-72
2023/02/15 00:54:52;;;;;;;84.75;20.73;;;1.80;99.90;;;;;;5033074;28;20306;-72
2023/02/15 00:57:39;;;;;;;62.33;18.90;;;1.80;99.90;;;;;;5021401;28;20205;-72
2023/02/15 01:00:24;;;;;;;28.38;20.20;;;1.60;99.90;;;;;;5030222;28;20209;-72
2023/02/15 01:03:10;;;;;;;79.70;20.38;;;1.80;99.90;;;;;;5029916;28;20205;-72
2023/02/15 01:05:56;;;;;;;37.53;19.33;;;1.70;99.90;;;;;;5027332;28;20210;-71
2023/02/15 01:08:42;;;;;;;29.35;19.23;;;1.70;99.90;;;;;;5029211;28;20232;-71
2023/02/15 01:11:28;;;;;;;40.33;19.10;;;2.00;99.90;;;;;;5029389;28;20225;-71
2023/02/15 01:14:15;;;;;;;25.17;18.05;;;2.10;99.90;;;;;;5028376;28;20216;-71
2023/02/15 01:17:00;;;;;;;27.73;16.67;;;2.20;99.90;;;;;;5021279;28;20209;-72
2023/02/15 01:19:46;;;;;;;25.70;17.77;;;2.30;99.90;;;;;;5031368;28;20230;-72
2023/02/15 01:22:32;;;;;;;103.30;17.75;;;2.30;99.90;;;;;;5029593;28;20288;-71
2023/02/15 01:25:18;;;;;;;46.42;16.20;;;2.40;99.90;;;;;;5023054;28;20211;-71
2023/02/15 01:28:04;;;;;;;28.63;16.63;;;2.30;99.90;;;;;;5022022;28;20630;-72
2023/02/15 01:30:51;;;;;;;42.70;17.20;;;2.20;99.90;;;;;;5028598;28;20321;-72
2023/02/15 01:33:38;;;;;;;23.85;16.30;;;2.10;99.90;;;;;;5026638;28;20205;-71
2023/02/15 01:36:23;;;;;;;25.02;16.27;;;2.00;99.90;;;;;;5022559;28;20218;-72
2023/02/15 01:39:10;;;;;;;26.30;17.42;;;2.10;99.90;;;;;;5023363;28;20264;-72
2023/02/15 01:41:56;;;;;;;28.98;18.48;;;2.10;99.90;;;;;;5036946;28;20196;-72
2023/02/15 01:44:51;;;;;;;66.57;17.80;;;2.20;99.90;;;;;;5024533;28;20722;-72
2023/02/15 01:47:42;;;;;;;27.42;15.45;;;2.10;99.90;;;;;;5024544;28;20671;-72
2023/02/15 01:50:32;;;;;;;23.60;16.92;;;1.90;99.90;;;;;;5029668;28;20251;-71
2023/02/15 01:53:22;;;;;;;22.67;17.77;;;2.00;99.90;;;;;;5023739;28;20265;-72
2023/02/15 01:56:12;;;;;;;40.70;15.70;;;2.10;99.90;;;;;;5016628;28;20591;-71
2023/02/15 01:59:02;;;;;;;22.95;16.30;;;2.10;99.90;;;;;;5031789;28;20229;-71
2023/02/15 02:01:49;;;;;;;25.35;18.00;;;1.90;99.90;;;;;;5028494;28;20686;-71
2023/02/15 02:04:41;;;;;;;44.13;16.05;;;2.00;99.90;;;;;;5023536;28;20201;-71
2023/02/15 02:07:29;;;;;;;25.20;17.40;;;1.90;99.90;;;;;;5020275;28;20205;-71
2023/02/15 02:10:17;;;;;;;30.88;15.75;;;1.80;99.90;;;;;;5026307;28;20229;-72
2023/02/15 02:13:05;;;;;;;26.88;15.95;;;1.90;99.90;;;;;;5030497;28;22232;-72
2023/02/15 02:15:59;;;;;;;57.80;16.92;;;2.00;99.90;;;;;;5022371;28;20334;-72
2023/02/15 02:18:55;;;;;;;35.63;17.15;;;1.80;99.90;;;;;;5027866;28;20280;-71
2023/02/15 02:22:12;;;;;;;23.80;16.80;;;1.90;99.90;;;;;;5028410;28;20717;-71
2023/02/15 02:25:43;;;;;;;21.73;15.85;;;2.00;99.90;;;;;;5022639;28;20733;-72
2023/02/15 02:28:55;;;;;;;40.25;16.15;;;2.20;99.90;;;;;;4964967;28;20227;-71
2023/02/15 02:32:07;;;;;;;23.63;16.70;;;2.30;99.90;;;;;;4952704;28;20254;-71
2023/02/15 02:34:59;;;;;;;42.75;17.05;;;2.30;99.90;;;;;;5022809;28;20606;-71
2023/02/15 02:38:03;;;;;;;28.23;16.92;;;2.30;99.90;;;;;;5025178;28;20577;-71
2023/02/15 02:40:57;;;;;;;22.60;16.10;;;2.30;99.90;;;;;;5031243;28;20204;-71
2023/02/15 02:43:51;;;;;;;26.20;15.73;;;2.30;99.90;;;;;;5028158;28;20333;-71
2023/02/15 02:46:51;;;;;;;19.85;13.57;;;2.30;99.90;;;;;;5015170;28;20740;-71
2023/02/15 02:49:39;;;;;;;23.08;15.13;;;2.40;99.90;;;;;;5031062;28;20226;-72
2023/02/15 02:52:42;;;;;;;34.53;15.98;;;2.30;99.90;;;;;;5027196;28;20783;-71
2023/02/15 02:55:32;;;;;;;24.55;15.80;;;2.30;99.90;;;;;;5021923;28;20237;-71
2023/02/15 02:58:23;;;;;;;30.55;15.07;;;2.20;99.90;;;;;;5032495;28;20271;-71
2023/02/15 03:01:14;;;;;;;26.90;16.42;;;2.10;99.90;;;;;;5030768;28;20206;-72
2023/02/15 03:04:04;;;;;;;33.53;15.70;;;2.10;99.90;;;;;;5029974;28;20230;-72
2023/02/15 03:06:53;;;;;;;33.40;16.80;;;2.10;99.90;;;;;;5027562;28;20204;-72
2023/02/15 03:09:43;;;;;;;31.30;17.05;;;2.10;99.90;;;;;;5027461;28;20229;-71
2023/02/15 03:12:32;;;;;;;27.33;15.15;;;2.10;99.90;;;;;;5029298;28;20558;-71
2023/02/15 03:15:21;;;;;;;26.88;16.30;;;2.10;99.90;;;;;;5017984;28;20229;-72
2023/02/15 03:18:07;;;;;;;27.38;16.20;;;2.10;99.90;;;;;;5029059;28;20210;-72
2023/02/15 03:20:54;;;;;;;50.13;16.10;;;2.20;99.90;;;;;;5030661;28;20209;-72
2023/02/15 03:23:40;;;;;;;40.53;16.00;;;2.20;99.90;;;;;;5028106;28;20325;-72
2023/02/15 03:26:30;;;;;;;26.92;17.13;;;2.20;99.90;;;;;;5021377;28;20233;-71
2023/02/15 03:29:17;;;;;;;24.35;15.68;;;2.20;99.90;;;;;;5027627;28;20222;-72
2023/02/15 03:32:06;;;;;;;53.35;17.73;;;2.20;99.90;;;;;;5026503;28;20212;-72
2023/02/15 03:34:52;;;;;;;26.95;16.90;;;2.20;99.90;;;;;;5020707;28;20225;-72
2023/02/15 03:37:42;;;;;;;26.40;16.48;;;2.20;99.90;;;;;;5021816;28;20198;-72
2023/02/15 03:43:43;;;;;;;45.25;17.38;;;2.20;99.90;;;;;;5027893;28;20779;-72
2023/02/15 03:46:34;;;;;;;51.13;17.85;;;2.20;99.90;;;;;;5019852;28;20213;-72
2023/02/15 03:49:25;;;;;;;23.25;16.98;;;2.20;99.90;;;;;;5028409;28;20924;-72
2023/02/15 03:52:15;;;;;;;35.47;18.10;;;2.40;99.90;;;;;;5028630;28;20209;-72
2023/02/15 03:55:01;;;;;;;25.73;17.58;;;2.40;99.90;;;;;;5017172;28;20731;-72
2023/02/15 04:04:10;;;;;;;46.92;17.20;;;2.40;99.90;;;;;;5027975;28;20695;-72
2023/02/15 04:06:55;;;;;;;49.92;18.20;;;2.40;99.90;;;;;;5030116;28;20248;-72
2023/02/15 04:12:44;;;;;;;65.90;16.90;;;2.40;99.90;;;;;;5027809;28;20260;-71
2023/02/15 04:27:48;;;;;;;38.90;17.58;;;2.30;99.90;;;;;;5029620;28;20201;-72
2023/02/15 04:30:34;;;;;;;77.80;18.38;;;2.40;99.90;;;;;;5029155;28;20205;-72
2023/02/15 04:33:19;;;;;;;37.08;17.20;;;2.40;99.90;;;;;;5029468;28;20244;-71
2023/02/15 04:36:07;;;;;;;25.08;15.82;;;2.40;99.90;;;;;;5027664;28;20275;-71
2023/02/15 04:38:52;;;;;;;23.08;15.93;;;2.40;99.90;;;;;;5038854;28;20657;-71
2023/02/15 04:41:38;;;;;;;41.00;17.83;;;2.40;99.90;;;;;;5024746;28;20206;-71
2023/02/15 04:44:24;;;;;;;39.13;17.67;;;2.40;99.90;;;;;;5025078;28;20206;-71
2023/02/15 04:47:10;;;;;;;32.08;16.73;;;2.50;99.90;;;;;;5031432;28;20212;-71
2023/02/15 04:49:55;;;;;;;21.17;14.50;;;2.50;99.90;;;;;;5028592;28;20225;-71
2023/02/15 04:52:42;;;;;;;26.35;17.17;;;2.40;99.90;;;;;;5029956;28;20325;-71
2023/02/15 04:55:28;;;;;;;22.35;16.35;;;2.30;99.90;;;;;;5023991;28;20260;-71
2023/02/15 04:58:14;;;;;;;26.30;18.15;;;2.20;99.90;;;;;;5033179;28;20902;-71
2023/02/15 05:01:00;;;;;;;26.17;16.58;;;2.20;99.90;;;;;;5031677;28;20700;-71
2023/02/15 05:03:45;;;;;;;24.52;16.92;;;2.20;99.90;;;;;;5027588;28;20568;-71
2023/02/15 05:06:31;;;;;;;24.02;17.08;;;2.20;99.90;;;;;;5026134;28;20777;-72
2023/02/15 05:09:18;;;;;;;28.20;16.08;;;2.30;99.90;;;;;;5030715;28;20237;-72
2023/02/15 05:12:04;;;;;;;27.30;17.75;;;2.20;99.90;;;;;;5018224;28;20794;-71
2023/02/15 05:14:50;;;;;;;22.25;15.38;;;2.20;99.90;;;;;;5023002;28;20217;-72
2023/02/15 05:17:35;;;;;;;25.23;16.38;;;2.30;99.90;;;;;;5031751;28;20344;-71
2023/02/15 05:20:21;;;;;;;22.98;15.35;;;2.40;99.90;;;;;;5030454;28;20241;-72
2023/02/15 05:23:07;;;;;;;28.23;18.50;;;2.40;99.90;;;;;;5023093;28;20216;-72
2023/02/15 05:28:57;;;;;;;23.42;16.17;;;2.50;99.90;;;;;;5035721;28;20709;-71
2023/02/15 05:31:46;;;;;;;20.25;14.65;;;2.40;99.90;;;;;;5028804;28;20682;-72
2023/02/15 05:34:32;;;;;;;21.90;14.18;;;2.40;99.90;;;;;;5024253;28;20197;-71
2023/02/15 05:37:18;;;;;;;24.95;16.02;;;2.40;99.90;;;;;;5025752;28;20209;-71
2023/02/15 05:40:04;;;;;;;21.55;15.90;;;2.40;99.90;;;;;;5031876;28;20241;-71
2023/02/15 05:42:51;;;;;;;23.45;14.65;;;2.40;99.90;;;;;;5022290;28;20564;-72
2023/02/15 05:45:36;;;;;;;24.42;16.23;;;2.40;99.90;;;;;;5027238;28;20200;-72
2023/02/15 05:48:23;;;;;;;22.85;14.88;;;2.40;99.90;;;;;;5031309;28;20232;-72
2023/02/15 05:51:12;;;;;;;23.48;14.80;;;2.50;99.90;;;;;;5028547;28;20213;-72
2023/02/15 05:53:58;;;;;;;24.45;15.80;;;2.50;99.90;;;;;;5020461;28;20594;-72
2023/02/15 05:56:43;;;;;;;27.00;15.35;;;2.50;99.90;;;;;;5026176;28;20225;-71
2023/02/15 05:59:31;;;;;;;22.25;15.40;;;2.50;99.90;;;;;;5030526;28;20224;-71
2023/02/15 06:02:16;;;;;;;26.42;16.55;;;2.50;99.90;;;;;;5033121;28;20280;-72
2023/02/15 06:05:02;;;;;;;25.67;14.73;;;2.60;99.90;;;;;;5025383;28;20326;-72
2023/02/15 06:07:48;;;;;;;22.90;15.43;;;2.60;99.90;;;;;;5038724;28;20212;-72
2023/02/15 06:10:33;;;;;;;21.60;14.82;;;2.60;99.90;;;;;;5031471;28;20217;-74
2023/02/15 06:13:19;;;;;;;18.77;14.48;;;2.50;99.90;;;;;;5017726;28;20340;-74
2023/02/15 06:16:07;;;;;;;21.23;14.60;;;2.50;99.90;;;;;;5020952;28;20237;-73
2023/02/15 06:18:53;;;;;;;19.15;13.27;;;2.50;99.90;;;;;;5031061;28;20228;-72
2023/02/15 06:21:38;;;;;;;21.92;16.20;;;2.30;99.90;;;;;;5032810;28;20906;-74
2023/02/15 06:24:24;;;;;;;19.27;14.68;;;2.40;99.90;;;;;;5020440;28;20714;-74
2023/02/15 06:27:10;;;;;;;19.50;14.23;;;2.40;99.90;;;;;;5036143;28;20734;-74
2023/02/15 06:29:56;;;;;;;17.92;12.82;;;2.40;99.90;;;;;;5025141;28;20221;-72
2023/02/15 06:32:43;;;;;;;27.70;14.10;;;2.40;99.90;;;;;;5024069;28;20265;-74
2023/02/15 06:35:28;;;;;;;19.30;13.82;;;2.50;99.90;;;;;;5028761;28;20225;-74
2023/02/15 06:38:14;;;;;;;20.33;13.85;;;2.50;99.90;;;;;;5032079;28;20197;-74
2023/02/15 06:41:00;;;;;;;23.50;13.43;;;2.40;99.90;;;;;;5026331;28;20228;-74
2023/02/15 06:43:45;;;;;;;20.15;13.50;;;2.40;99.90;;;;;;5019927;28;20746;-73
2023/02/15 06:46:31;;;;;;;15.63;12.73;;;2.50;99.90;;;;;;5022168;28;20268;-74
2023/02/15 06:49:18;;;;;;;22.35;14.02;;;2.50;99.90;;;;;;5030659;28;20725;-74
2023/02/15 06:52:04;;;;;;;22.73;14.35;;;2.50;99.90;;;;;;5028880;28;20212;-73
2023/02/15 06:54:50;;;;;;;26.42;15.13;;;2.40;99.90;;;;;;5028523;28;20213;-74
2023/02/15 06:57:36;;;;;;;16.77;12.93;;;2.40;99.90;;;;;;5026594;28;20969;-74
2023/02/15 07:00:23;;;;;;;23.10;15.23;;;2.40;99.90;;;;;;5030123;28;20722;-74
2023/02/15 07:03:08;;;;;;;23.20;16.10;;;2.50;99.90;;;;;;5019602;28;20344;-72
2023/02/15 07:05:57;;;;;;;20.95;15.20;;;2.50;99.90;;;;;;5022332;28;20779;-72
2023/02/15 07:08:42;;;;;;;21.80;15.50;;;2.50;99.90;;;;;;5031177;28;20236;-74
2023/02/15 07:14:32;;;;;;;26.73;17.23;;;2.50;99.90;;;;;;5029475;28;20241;-73
2023/02/15 07:17:18;;;;;;;27.60;16.38;;;2.50;99.90;;;;;;5022861;28;20222;-73
2023/02/15 07:20:07;;;;;;;26.25;16.00;;;2.50;99.90;;;;;;5029664;28;20248;-73
2023/02/15 07:22:54;;;;;;;25.02;16.20;;;2.60;99.90;;;;;;5022853;28;20206;-71
2023/02/15 07:25:39;;;;;;;25.80;15.82;;;2.60;99.90;;;;;;5021768;28;20217;-73
2023/02/15 07:28:25;;;;;;;31.15;17.33;;;2.60;99.90;;;;;;5024982;28;20730;-70
2023/02/15 07:31:11;;;;;;;28.92;18.15;;;2.70;99.90;;;;;;5030331;28;20208;-71
2023/02/15 07:33:56;;;;;;;24.20;16.77;;;2.80;99.90;;;;;;5028795;28;20679;-72
2023/02/15 07:36:43;;;;;;;25.42;16.90;;;2.70;99.90;;;;;;5028320;28;20738;-73
2023/02/15 07:39:30;;;;;;;26.23;17.20;;;2.80;99.90;;;;;;5038826;28;20591;-72
2023/02/15 07:42:16;;;;;;;22.92;16.90;;;2.70;99.90;;;;;;5019312;28;20214;-72
2023/02/15 07:45:01;;;;;;;28.25;17.60;;;2.60;99.90;;;;;;5037567;28;20291;-73
2023/02/15 07:47:47;;;;;;;23.38;16.10;;;2.70;99.90;;;;;;5042098;28;20221;-73
2023/02/15 07:50:33;;;;;;;30.15;17.60;;;2.60;99.90;;;;;;5033588;28;20205;-73
2023/02/15 07:53:19;;;;;;;23.42;15.98;;;2.50;99.90;;;;;;5023568;28;20240;-73
2023/02/15 07:56:07;;;;;;;24.38;15.88;;;2.50;99.90;;;;;;5037055;28;20357;-73
2023/02/15 07:58:53;;;;;;;24.15;16.60;;;2.50;99.90;;;;;;5029757;28;20221;-73
2023/02/15 08:01:40;;;;;;;26.17;16.45;;;2.60;99.90;;;;;;5027338;28;20225;-73
2023/02/15 08:04:25;;;;;;;23.27;15.05;;;2.60;99.90;;;;;;5021674;28;20206;-73
2023/02/15 08:07:11;;;;;;;25.60;16.10;;;2.70;99.90;;;;;;5029107;28;20342;-73
2023/02/15 08:09:57;;;;;;;24.42;15.02;;;2.80;99.90;;;;;;5028928;28;20233;-72
2023/02/15 08:12:44;;;;;;;23.27;15.20;;;2.80;99.90;;;;;;5029038;28;20283;-72
2023/02/15 08:15:30;;;;;;;24.38;15.40;;;2.80;99.90;;;;;;5031365;28;20213;-73
2023/02/15 08:18:15;;;;;;;26.70;17.05;;;2.90;99.90;;;;;;5027545;28;20393;-73
2023/02/15 08:21:03;;;;;;;23.15;15.00;;;2.90;99.90;;;;;;5028274;28;20288;-72
2023/02/15 08:23:49;;;;;;;24.90;15.65;;;2.80;99.90;;;;;;5034746;28;20688;-72
2023/02/15 08:26:35;;;;;;;23.40;15.82;;;2.80;99.90;;;;;;5036614;28;20272;-72
2023/02/15 08:29:24;;;;;;;22.08;15.30;;;2.80;99.90;;;;;;5035614;28;20229;-72
2023/02/15 08:32:11;;;;;;;24.38;16.00;;;2.80;99.90;;;;;;5022092;28;20655;-70
2023/02/15 08:34:57;;;;;;;27.80;16.67;;;2.80;99.90;;;;;;5033714;28;20201;-73
2023/02/15 08:37:42;;;;;;;24.55;16.27;;;2.80;99.90;;;;;;5046488;28;20228;-73
2023/02/15 08:40:28;;;;;;;25.45;16.17;;;2.90;99.90;;;;;;5030073;28;20206;-72
2023/02/15 08:43:14;;;;;;;23.85;15.15;;;2.90;99.90;;;;;;5022874;28;20226;-73
2023/02/15 08:46:01;;;;;;;22.23;14.10;;;2.90;99.90;;;;;;5027408;28;20206;-72
2023/02/15 08:48:47;;;;;;;25.25;16.27;;;2.90;99.90;;;;;;5032558;28;20602;-73
2023/02/15 08:51:34;;;;;;;24.23;15.32;;;3.00;99.90;;;;;;5018216;28;20205;-73
2023/02/15 08:54:22;;;;;;;23.75;16.45;;;3.00;99.90;;;;;;5038389;28;20573;-73
2023/02/15 08:57:07;;;;;;;26.35;17.45;;;3.00;99.90;;;;;;5037011;28;20236;-73
2023/02/15 08:59:54;;;;;;;25.52;15.95;;;3.10;99.90;;;;;;5033845;28;20292;-72
2023/02/15 09:02:42;;;;;;;26.20;16.27;;;3.20;99.90;;;;;;5028990;28;20327;-73
2023/02/15 09:05:27;;;;;;;24.58;16.75;;;3.20;99.90;;;;;;5034590;28;20341;-72
2023/02/15 09:08:13;;;;;;;23.80;15.13;;;3.20;99.90;;;;;;5031096;28;20209;-72
2023/02/15 09:11:07;;;;;;;26.10;17.40;;;3.30;99.90;;;;;;5034207;28;20209;-73
2023/02/15 09:13:55;;;;;;;22.15;15.50;;;3.10;99.90;;;;;;5030931;28;20263;-73
2023/02/15 09:16:41;;;;;;;20.45;14.80;;;3.20;99.90;;;;;;5033650;28;20267;-73
2023/02/15 09:19:28;;;;;;;22.33;15.55;;;3.10;99.90;;;;;;5035980;28;20224;-73
2023/02/15 09:22:14;;;;;;;26.40;16.70;;;3.20;99.90;;;;;;5017355;28;20749;-73
2023/02/15 09:24:59;;;;;;;21.35;15.50;;;2.90;99.90;;;;;;5023509;28;20694;-73
2023/02/15 09:27:45;;;;;;;22.88;15.43;;;2.90;99.90;;;;;;5030219;28;20190;-73
2023/02/15 09:30:31;;;;;;;50.75;25.65;;;3.00;99.90;;;;;;5027580;28;20197;-71
2023/02/15 09:33:16;;;;;;;37.85;21.15;;;3.00;99.90;;;;;;5028886;28;20213;-70
2023/02/15 09:36:04;;;;;;;28.70;18.45;;;3.10;99.90;;;;;;5024073;28;20228;-73
2023/02/15 09:38:56;;;;;;;22.50;16.08;;;3.20;99.90;;;;;;5039923;28;20590;-73
2023/02/15 09:42:06;;;;;;;25.75;15.73;;;3.30;99.90;;;;;;5023317;28;20206;-73
2023/02/15 09:45:14;;;;;;;24.08;17.42;;;3.40;99.90;;;;;;5036244;28;20205;-72
2023/02/15 09:48:36;;;;;;;35.85;16.25;;;3.50;99.90;;;;;;5041174;28;20307;-73
2023/02/15 09:51:55;;;;;;;26.10;16.40;;;3.30;99.90;;;;;;5026005;28;20287;-73
2023/02/15 09:54:54;;;;;;;29.25;17.92;;;3.50;99.90;;;;;;5038353;28;20286;-73
2023/02/15 09:57:48;;;;;;;28.25;18.55;;;3.50;99.90;;;;;;5040344;28;20706;-73
2023/02/15 10:00:45;;;;;;;26.42;17.33;;;3.30;99.90;;;;;;5022860;28;20205;-72
2023/02/15 10:03:43;;;;;;;29.30;18.02;;;3.20;99.90;;;;;;5023848;28;20210;-73
2023/02/15 10:06:41;;;;;;;25.20;17.80;;;3.30;99.90;;;;;;5035000;28;20264;-73
2023/02/15 10:09:47;;;;;;;29.25;19.10;;;3.40;99.90;;;;;;5028324;28;20591;-73
2023/02/15 10:12:53;;;;;;;27.65;18.25;;;3.40;99.90;;;;;;5034717;28;20205;-72
2023/02/15 10:15:57;;;;;;;29.27;18.58;;;3.50;99.90;;;;;;5042762;28;20290;-73
2023/02/15 10:19:01;;;;;;;25.48;17.75;;;3.70;99.90;;;;;;5040938;28;20318;-72
2023/02/15 10:21:59;;;;;;;29.88;18.60;;;3.60;99.90;;;;;;5026347;28;20686;-73
2023/02/15 10:25:11;;;;;;;30.88;18.92;;;3.50;99.90;;;;;;5031972;28;20691;-73
2023/02/15 10:28:02;;;;;;;26.02;17.70;;;3.50;99.90;;;;;;5023494;28;20276;-73
2023/02/15 10:30:50;;;;;;;29.33;19.08;;;3.50;99.90;;;;;;5024461;28;20694;-73
2023/02/15 10:33:40;;;;;;;29.48;18.90;;;3.50;99.90;;;;;;5036562;28;20204;-73
2023/02/15 10:36:39;;;;;;;30.85;19.45;;;3.60;99.90;;;;;;5036574;28;20225;-73
2023/02/15 10:39:29;;;;;;;30.23;19.88;;;3.60;99.90;;;;;;5030046;28;20288;-73
2023/02/15 10:42:24;;;;;;;38.25;22.42;;;3.60;99.90;;;;;;5029969;28;20561;-73
2023/02/15 10:45:20;;;;;;;34.10;21.60;;;3.40;99.90;;;;;;5029417;28;20198;-73
2023/02/15 10:48:27;;;;;;;34.92;23.67;;;3.40;99.90;;;;;;5034030;28;20204;-72
2023/02/15 10:51:20;;;;;;;41.95;25.10;;;3.50;99.90;;;;;;5019366;28;20206;-72
2023/02/15 10:54:25;;;;;;;39.50;24.73;;;3.50;99.90;;;;;;5023789;28;20206;-72
2023/02/15 10:57:21;;;;;;;41.50;25.50;;;3.40;99.90;;;;;;5033911;28;20623;-72
2023/02/15 11:00:12;;;;;;;51.63;27.23;;;3.50;99.90;;;;;;5023906;28;20282;-73
2023/02/15 11:03:19;;;;;;;48.28;29.33;;;3.60;99.90;;;;;;5026562;28;20328;-73
2023/02/15 11:06:10;;;;;;;45.35;28.00;;;3.60;99.90;;;;;;5031990;28;20280;-73
2023/02/15 11:09:00;;;;;;;44.88;29.08;;;3.50;99.90;;;;;;5035491;28;20275;-73
2023/02/15 11:11:50;;;;;;;51.78;27.58;;;3.60;99.90;;;;;;5029637;28;20201;-72
2023/02/15 11:14:40;;;;;;;51.00;29.58;;;3.70;99.90;;;;;;5033031;28;20201;-72
2023/02/15 11:17:31;;;;;;;49.17;30.67;;;3.70;99.90;;;;;;5028436;28;20221;-72
2023/02/15 11:20:22;;;;;;;46.83;28.70;;;3.70;99.90;;;;;;5034840;28;20229;-73
2023/02/15 11:23:16;;;;;;;46.20;27.40;;;3.70;99.90;;;;;;5037778;28;20296;-73
2023/02/15 11:26:04;;;;;;;47.95;29.45;;;3.80;99.90;;;;;;5051051;28;20216;-72
2023/02/15 11:28:54;;;;;;;49.42;29.65;;;3.80;99.90;;;;;;5048374;28;20348;-72
2023/02/15 11:31:46;;;;;;;53.70;28.95;;;3.80;99.90;;;;;;5028520;28;20209;-72
2023/02/15 11:34:36;;;;;;;42.55;26.60;;;4.00;99.90;;;;;;5032273;28;20570;-72
2023/02/15 11:37:28;;;;;;;44.22;26.58;;;4.00;99.90;;;;;;5034564;28;20299;-72
2023/02/15 11:40:22;;;;;;;39.13;25.40;;;4.10;99.90;;;;;;5028719;28;20221;-72
2023/02/15 11:43:14;;;;;;;43.38;26.90;;;4.20;99.90;;;;;;5051142;28;20790;-73
2023/02/15 11:46:00;;;;;;;44.08;26.65;;;4.20;99.90;;;;;;5034128;28;20287;-73
2023/02/15 11:48:48;;;;;;;42.47;26.77;;;4.10;99.90;;;;;;5033166;28;20263;-71
2023/02/15 11:51:33;;;;;;;44.67;26.80;;;4.20;99.90;;;;;;5029395;28;20279;-73
2023/02/15 11:54:27;;;;;;;41.85;24.70;;;4.40;99.90;;;;;;5035767;28;20275;-74
2023/02/15 11:57:17;;;;;;;50.72;26.15;;;4.40;99.90;;;;;;5024447;28;20230;-74
2023/02/15 12:00:11;;;;;;;40.20;25.23;;;4.40;99.90;;;;;;5024602;28;20684;-73
2023/02/15 12:02:58;;;;;;;40.47;25.80;;;4.50;99.90;;;;;;5033203;28;20201;-73
2023/02/15 12:05:49;;;;;;;38.30;25.05;;;4.60;99.90;;;;;;5032492;28;20687;-72
2023/02/15 12:08:41;;;;;;;47.95;25.80;;;4.50;99.90;;;;;;5025428;28;20231;-74
2023/02/15 12:11:35;;;;;;;46.78;27.48;;;4.40;99.90;;;;;;5062640;22;20232;-75
2023/02/15 12:14:20;;;;;;;51.03;26.38;;;4.20;99.90;;;;;;5045944;28;20208;-76
2023/02/15 12:17:14;;;;;;;42.95;25.75;;;4.30;99.90;;;;;;5034905;28;20221;-76
2023/02/15 12:20:03;;;;;;;37.88;24.67;;;4.50;99.90;;;;;;5040494;28;20583;-76
2023/02/15 12:22:54;;;;;;;41.30;26.02;;;4.50;99.90;;;;;;5025439;28;20775;-76
2023/02/15 12:25:43;;;;;;;37.55;25.00;;;4.40;99.90;;;;;;5032526;28;20225;-76
2023/02/15 12:28:34;;;;;;;42.75;26.65;;;4.20;99.90;;;;;;5031136;28;20221;-76
2023/02/15 12:31:23;;;;;;;38.33;24.10;;;4.10;99.90;;;;;;5026582;28;20700;-76
2023/02/15 12:34:13;;;;;;;44.17;27.05;;;4.10;99.90;;;;;;5027139;28;20276;-76
2023/02/15 12:37:03;;;;;;;45.03;27.95;;;4.10;99.90;;;;;;5031365;28;20702;-76
2023/02/15 12:40:00;;;;;;;42.38;26.63;;;4.20;99.90;;;;;;5028571;28;20232;-76
2023/02/15 12:42:46;;;;;;;40.58;25.48;;;4.20;99.90;;;;;;5025768;28;20206;-76
2023/02/15 12:45:34;;;;;;;41.67;24.52;;;4.30;99.90;;;;;;5026305;28;20682;-76
2023/02/15 12:48:21;;;;;;;38.35;24.95;;;4.50;99.90;;;;;;5033262;28;20197;-76
2023/02/15 12:51:09;;;;;;;34.70;23.70;;;4.60;99.90;;;;;;5028669;28;20220;-76
2023/02/15 12:53:55;;;;;;;35.50;24.00;;;4.70;99.90;;;;;;5021554;28;20225;-76
2023/02/15 12:56:42;;;;;;;35.28;23.27;;;4.70;99.90;;;;;;5037731;28;20218;-76
2023/02/15 12:59:28;;;;;;;43.55;28.23;;;4.70;99.90;;;;;;5031335;28;20210;-76
2023/02/15 13:02:22;;;;;;;40.65;25.90;;;4.80;99.90;;;;;;5025474;28;20221;-75
2023/02/15 13:05:20;;;;;;;37.50;23.33;;;4.80;99.90;;;;;;5020682;28;20697;-75
2023/02/15 13:08:13;;;;;;;39.47;25.38;;;4.90;99.90;;;;;;5028938;28;20681;-75
2023/02/15 13:11:01;;;;;;;38.30;24.25;;;4.80;99.90;;;;;;5024000;28;20733;-76
2023/02/15 13:13:54;;;;;;;38.83;25.27;;;4.90;99.90;;;;;;5028887;28;20333;-76
2023/02/15 13:16:40;;;;;;;43.67;25.73;;;5.00;99.90;;;;;;5029965;28;20193;-76
2023/02/15 13:19:32;;;;;;;43.17;26.00;;;4.90;99.90;;;;;;5029829;28;20339;-76
2023/02/15 13:22:22;;;;;;;38.13;25.98;;;4.80;99.90;;;;;;5028709;28;20264;-76
2023/02/15 13:25:14;;;;;;;42.90;25.15;;;4.90;99.90;;;;;;5024660;28;20268;-76
2023/02/15 13:28:03;;;;;;;41.97;26.05;;;5.00;99.90;;;;;;5022837;28;20210;-76
2023/02/15 13:30:51;;;;;;;45.30;27.20;;;4.90;99.90;;;;;;5023279;28;20232;-76
2023/02/15 13:33:39;;;;;;;40.10;26.15;;;4.90;99.90;;;;;;5028058;28;20205;-76
2023/02/15 13:36:32;;;;;;;43.05;26.92;;;5.00;99.90;;;;;;5033351;28;20247;-76
2023/02/15 13:39:26;;;;;;;43.65;26.02;;;5.00;99.90;;;;;;5018038;28;20287;-76
2023/02/15 13:42:22;;;;;;;41.83;25.90;;;5.10;99.90;;;;;;5019853;28;20201;-76
2023/02/15 13:45:27;;;;;;;44.22;26.77;;;5.20;99.90;;;;;;5023400;28;20840;-76
2023/02/15 13:48:22;;;;;;;42.67;24.33;;;5.30;99.90;;;;;;5022124;28;20204;-76
2023/02/15 13:51:15;;;;;;;41.55;26.60;;;5.10;99.90;;;;;;5030728;28;20283;-76
2023/02/15 13:54:36;;;;;;;37.75;24.35;;;5.10;99.90;;;;;;5032006;28;20332;-77
2023/02/15 13:57:52;;;;;;;37.63;25.52;;;5.20;99.90;;;;;;5027566;28;20288;-76
2023/02/15 14:00:44;;;;;;;42.20;24.08;;;5.30;99.90;;;;;;5026469;28;20784;-76
2023/02/15 14:04:02;;;;;;;43.13;26.10;;;5.30;99.90;;;;;;5029898;28;20570;-76
2023/02/15 14:07:09;;;;;;;43.70;26.88;;;5.30;99.90;;;;;;5029745;28;20205;-76
2023/02/15 14:10:10;;;;;;;41.20;26.45;;;5.30;99.90;;;;;;5025714;28;20652;-76
2023/02/15 14:13:20;;;;;;;43.38;27.40;;;5.30;99.90;;;;;;5037260;28;20243;-76
2023/02/15 14:16:11;;;;;;;48.03;28.10;;;5.30;99.90;;;;;;5026667;28;20205;-76
2023/02/15 14:19:05;;;;;;;42.92;27.95;;;5.50;99.90;;;;;;5027132;28;21020;-76
2023/02/15 14:22:01;;;;;;;46.45;28.10;;;5.40;99.90;;;;;;5026487;28;20215;-76
2023/02/15 14:24:56;;;;;;;43.17;26.45;;;5.30;99.90;;;;;;5028421;28;20201;-76
2023/02/15 14:27:52;;;;;;;42.17;26.13;;;5.30;99.90;;;;;;5029110;28;20202;-76
2023/02/15 14:30:40;;;;;;;40.60;28.08;;;5.30;99.90;;;;;;5024177;28;20245;-76
2023/02/15 14:33:36;;;;;;;44.50;27.08;;;5.40;99.90;;;;;;5027832;28;20201;-76
2023/02/15 14:36:25;;;;;;;45.03;27.53;;;5.50;99.90;;;;;;5033568;28;20677;-76
2023/02/15 14:42:35;;;;;;;53.53;27.02;;;5.50;99.90;;;;;;5035066;28;20197;-76
2023/02/15 14:45:28;;;;;;;44.33;28.47;;;5.40;99.90;;;;;;5031531;28;20255;-76
2023/02/15 14:48:20;;;;;;;43.33;27.75;;;5.40;99.90;;;;;;5022268;28;20436;-76
2023/02/15 14:51:06;;;;;;;53.58;30.90;;;5.40;99.90;;;;;;5038926;28;20590;-76
2023/02/15 14:53:53;;;;;;;49.33;30.40;;;5.40;99.90;;;;;;5029502;28;20288;-76
2023/02/15 14:56:39;;;;;;;49.05;29.30;;;5.40;99.90;;;;;;5035417;28;20587;-76
2023/02/15 14:59:25;;;;;;;52.25;31.00;;;5.30;99.90;;;;;;5024273;28;20719;-76
2023/02/15 15:02:16;;;;;;;47.95;30.77;;;5.40;99.90;;;;;;5031981;28;20605;-76
2023/02/15 15:05:07;;;;;;;50.25;31.13;;;5.50;99.90;;;;;;5030012;28;20201;-76
2023/02/15 15:07:55;;;;;;;49.75;31.45;;;5.50;99.90;;;;;;5024682;28;20201;-76